sensor_id;sensor_type;location;lat;lon;timestamp;P1;durP1;ratioP1;P2;durP2;ratioP2
3401;SDS011;1714;49.756;8.610;2022-08-25T00:06:37;2.05;;;1.85;;
3401;SDS011;1714;49.756;8.610;2022-08-25T00:16:41;3.88;;;2.00;;
3401;SDS011;1714;49.756;8.610;2022-08-25T00:26:44;6.60;;;2.20;;
3401;SDS011;1714;49.756;8.610;2022-08-25T00:36:49;4.40;;;3.03;;
3401;SDS011;1714;49.756;8.610;2022-08-25T00:46:52;2.00;;;1.80;;
3401;SDS011;1714;49.756;8.610;2022-08-25T00:56:56;4.05;;;1.98;;
3401;SDS011;1714;49.756;8.610;2022-08-25T01:07:01;5.40;;;2.85;;
3401;SDS011;1714;49.756;8.610;2022-08-25T01:17:14;3.05;;;2.67;;
3401;SDS011;1714;49.756;8.610;2022-08-25T01:27:16;3.88;;;2.20;;
3401;SDS011;1714;49.756;8.610;2022-08-25T01:37:18;3.85;;;2.40;;
3401;SDS011;1714;49.756;8.610;2022-08-25T01:47:20;5.03;;;2.67;;
3401;SDS011;1714;49.756;8.610;2022-08-25T01:57:23;4.82;;;2.60;;
3401;SDS011;1714;49.756;8.610;2022-08-25T02:07:25;4.55;;;2.60;;
3401;SDS011;1714;49.756;8.610;2022-08-25T02:17:27;3.15;;;2.13;;
3401;SDS011;1714;49.756;8.610;2022-08-25T02:27:30;3.08;;;2.38;;
3401;SDS011;1714;49.756;8.610;2022-08-25T02:37:31;12.23;;;2.88;;
3401;SDS011;1714;49.756;8.610;2022-08-25T02:47:34;6.20;;;2.83;;
3401;SDS011;1714;49.756;8.610;2022-08-25T02:57:36;5.00;;;3.03;;
3401;SDS011;1714;49.756;8.610;2022-08-25T03:07:38;10.27;;;3.03;;
3401;SDS011;1714;49.756;8.610;2022-08-25T03:17:44;6.40;;;2.80;;
3401;SDS011;1714;49.756;8.610;2022-08-25T03:27:48;6.50;;;2.83;;
3401;SDS011;1714;49.756;8.610;2022-08-25T03:37:57;4.63;;;3.53;;
3401;SDS011;1714;49.756;8.610;2022-08-25T03:47:59;5.03;;;3.28;;
3401;SDS011;1714;49.756;8.610;2022-08-25T03:58:02;5.05;;;3.80;;
3401;SDS011;1714;49.756;8.610;2022-08-25T04:08:04;4.90;;;4.40;;
3401;SDS011;1714;49.756;8.610;2022-08-25T04:18:06;6.57;;;4.13;;
3401;SDS011;1714;49.756;8.610;2022-08-25T04:28:12;6.70;;;5.10;;
3401;SDS011;1714;49.756;8.610;2022-08-25T04:38:13;6.20;;;4.78;;
3401;SDS011;1714;49.756;8.610;2022-08-25T04:48:16;6.13;;;5.53;;
3401;SDS011;1714;49.756;8.610;2022-08-25T04:58:18;4.68;;;4.10;;
3401;SDS011;1714;49.756;8.610;2022-08-25T05:08:20;9.38;;;4.97;;
3401;SDS011;1714;49.756;8.610;2022-08-25T05:18:24;7.63;;;5.03;;
3401;SDS011;1714;49.756;8.610;2022-08-25T05:28:27;5.55;;;4.95;;
3401;SDS011;1714;49.756;8.610;2022-08-25T05:38:30;8.57;;;4.72;;
3401;SDS011;1714;49.756;8.610;2022-08-25T05:48:32;7.97;;;4.85;;
3401;SDS011;1714;49.756;8.610;2022-08-25T05:58:34;7.97;;;5.38;;
3401;SDS011;1714;49.756;8.610;2022-08-25T06:08:37;6.82;;;6.10;;
3401;SDS011;1714;49.756;8.610;2022-08-25T06:18:39;7.25;;;5.35;;
3401;SDS011;1714;49.756;8.610;2022-08-25T06:28:42;6.55;;;5.55;;
3401;SDS011;1714;49.756;8.610;2022-08-25T06:38:44;5.72;;;5.10;;
3401;SDS011;1714;49.756;8.610;2022-08-25T06:48:47;8.68;;;4.95;;
3401;SDS011;1714;49.756;8.610;2022-08-25T06:58:50;8.73;;;5.47;;
3401;SDS011;1714;49.756;8.610;2022-08-25T07:08:52;7.10;;;5.15;;
3401;SDS011;1714;49.756;8.610;2022-08-25T07:18:54;6.95;;;5.50;;
3401;SDS011;1714;49.756;8.610;2022-08-25T07:28:57;6.55;;;4.78;;
3401;SDS011;1714;49.756;8.610;2022-08-25T07:39:00;5.10;;;4.63;;
3401;SDS011;1714;49.756;8.610;2022-08-25T07:49:04;5.22;;;4.43;;
3401;SDS011;1714;49.756;8.610;2022-08-25T07:59:15;5.10;;;4.55;;
3401;SDS011;1714;49.756;8.610;2022-08-25T08:09:18;5.20;;;4.32;;
3401;SDS011;1714;49.756;8.610;2022-08-25T08:19:20;6.28;;;4.47;;
3401;SDS011;1714;49.756;8.610;2022-08-25T08:29:22;6.35;;;4.68;;
3401;SDS011;1714;49.756;8.610;2022-08-25T08:39:24;7.55;;;4.35;;
3401;SDS011;1714;49.756;8.610;2022-08-25T08:49:38;6.28;;;4.95;;
3401;SDS011;1714;49.756;8.610;2022-08-25T08:59:56;6.10;;;4.50;;
3401;SDS011;1714;49.756;8.610;2022-08-25T09:10:04;6.82;;;5.10;;
3401;SDS011;1714;49.756;8.610;2022-08-25T09:30:48;7.40;;;4.40;;
3401;SDS011;1714;49.756;8.610;2022-08-25T09:51:50;5.00;;;4.45;;
3401;SDS011;1714;49.756;8.610;2022-08-25T10:01:59;4.45;;;3.97;;
3401;SDS011;1714;49.756;8.610;2022-08-25T10:12:17;5.82;;;4.15;;
3401;SDS011;1714;49.756;8.610;2022-08-25T10:22:30;5.73;;;4.33;;
3401;SDS011;1714;49.756;8.610;2022-08-25T10:32:48;6.30;;;3.65;;
3401;SDS011;1714;49.756;8.610;2022-08-25T10:53:34;4.78;;;3.00;;
3401;SDS011;1714;49.756;8.610;2022-08-25T11:04:02;5.78;;;2.90;;
3401;SDS011;1714;49.756;8.610;2022-08-25T11:14:28;3.25;;;2.45;;
3401;SDS011;1714;49.756;8.610;2022-08-25T11:24:41;3.38;;;2.85;;
3401;SDS011;1714;49.756;8.610;2022-08-25T11:35:05;3.00;;;2.70;;
3401;SDS011;1714;49.756;8.610;2022-08-25T11:45:14;3.83;;;2.60;;
3401;SDS011;1714;49.756;8.610;2022-08-25T11:55:51;4.38;;;2.72;;
3401;SDS011;1714;49.756;8.610;2022-08-25T12:37:33;3.55;;;3.08;;
3401;SDS011;1714;49.756;8.610;2022-08-25T12:47:54;5.38;;;3.03;;
3401;SDS011;1714;49.756;8.610;2022-08-25T12:58:16;3.40;;;3.10;;
3401;SDS011;1714;49.756;8.610;2022-08-25T13:39:17;4.15;;;2.42;;
3401;SDS011;1714;49.756;8.610;2022-08-25T13:49:45;4.00;;;3.03;;
3401;SDS011;1714;49.756;8.610;2022-08-25T13:59:50;5.00;;;2.47;;
3401;SDS011;1714;49.756;8.610;2022-08-25T14:10:05;4.97;;;2.80;;
3401;SDS011;1714;49.756;8.610;2022-08-25T14:20:29;3.03;;;2.83;;
3401;SDS011;1714;49.756;8.610;2022-08-25T14:30:38;5.30;;;2.67;;
3401;SDS011;1714;49.756;8.610;2022-08-25T14:40:48;2.40;;;2.20;;
3401;SDS011;1714;49.756;8.610;2022-08-25T14:50:58;2.50;;;2.22;;
3401;SDS011;1714;49.756;8.610;2022-08-25T15:01:02;3.40;;;2.30;;
3401;SDS011;1714;49.756;8.610;2022-08-25T15:11:08;2.65;;;2.45;;
3401;SDS011;1714;49.756;8.610;2022-08-25T15:21:14;4.07;;;2.80;;
3401;SDS011;1714;49.756;8.610;2022-08-25T15:31:17;3.13;;;2.80;;
3401;SDS011;1714;49.756;8.610;2022-08-25T15:41:24;2.88;;;2.67;;
3401;SDS011;1714;49.756;8.610;2022-08-25T15:51:31;3.35;;;3.08;;
3401;SDS011;1714;49.756;8.610;2022-08-25T16:01:34;4.53;;;3.30;;
3401;SDS011;1714;49.756;8.610;2022-08-25T16:11:41;4.55;;;2.80;;
3401;SDS011;1714;49.756;8.610;2022-08-25T16:21:55;6.80;;;2.90;;
3401;SDS011;1714;49.756;8.610;2022-08-25T16:31:59;3.40;;;3.10;;
3401;SDS011;1714;49.756;8.610;2022-08-25T16:42:02;3.72;;;3.42;;
3401;SDS011;1714;49.756;8.610;2022-08-25T16:52:06;3.28;;;2.97;;
3401;SDS011;1714;49.756;8.610;2022-08-25T17:02:31;3.28;;;2.80;;
3401;SDS011;1714;49.756;8.610;2022-08-25T17:12:38;3.75;;;3.08;;
3401;SDS011;1714;49.756;8.610;2022-08-25T17:22:41;4.00;;;3.03;;
3401;SDS011;1714;49.756;8.610;2022-08-25T17:32:43;6.20;;;3.70;;
3401;SDS011;1714;49.756;8.610;2022-08-25T17:42:48;8.00;;;3.35;;
3401;SDS011;1714;49.756;8.610;2022-08-25T17:52:50;3.00;;;2.70;;
3401;SDS011;1714;49.756;8.610;2022-08-25T18:02:53;6.55;;;3.10;;
3401;SDS011;1714;49.756;8.610;2022-08-25T18:12:56;4.03;;;2.97;;
3401;SDS011;1714;49.756;8.610;2022-08-25T18:23:02;8.27;;;3.77;;
3401;SDS011;1714;49.756;8.610;2022-08-25T18:33:08;10.10;;;3.60;;
3401;SDS011;1714;49.756;8.610;2022-08-25T18:43:11;10.73;;;4.65;;
3401;SDS011;1714;49.756;8.610;2022-08-25T18:53:25;6.47;;;3.73;;
3401;SDS011;1714;49.756;8.610;2022-08-25T19:03:48;4.07;;;3.35;;
3401;SDS011;1714;49.756;8.610;2022-08-25T19:13:50;7.80;;;3.47;;
3401;SDS011;1714;49.756;8.610;2022-08-25T19:23:52;3.55;;;3.08;;
3401;SDS011;1714;49.756;8.610;2022-08-25T19:33:54;3.42;;;3.08;;
3401;SDS011;1714;49.756;8.610;2022-08-25T19:43:58;5.75;;;4.05;;
3401;SDS011;1714;49.756;8.610;2022-08-25T19:54:02;4.72;;;3.08;;
3401;SDS011;1714;49.756;8.610;2022-08-25T20:04:07;7.30;;;3.58;;
3401;SDS011;1714;49.756;8.610;2022-08-25T20:14:09;4.38;;;3.63;;
3401;SDS011;1714;49.756;8.610;2022-08-25T20:24:11;4.53;;;3.72;;
3401;SDS011;1714;49.756;8.610;2022-08-25T20:34:31;6.85;;;4.25;;
3401;SDS011;1714;49.756;8.610;2022-08-25T20:44:35;7.68;;;4.18;;
3401;SDS011;1714;49.756;8.610;2022-08-25T20:54:39;6.03;;;4.03;;
3401;SDS011;1714;49.756;8.610;2022-08-25T21:04:48;5.18;;;4.10;;
3401;SDS011;1714;49.756;8.610;2022-08-25T21:14:50;6.15;;;4.22;;
3401;SDS011;1714;49.756;8.610;2022-08-25T21:24:52;4.80;;;4.03;;
3401;SDS011;1714;49.756;8.610;2022-08-25T21:34:54;9.32;;;3.65;;
3401;SDS011;1714;49.756;8.610;2022-08-25T21:44:56;4.63;;;4.03;;
3401;SDS011;1714;49.756;8.610;2022-08-25T21:54:59;6.03;;;4.65;;
3401;SDS011;1714;49.756;8.610;2022-08-25T22:05:02;9.55;;;4.57;;
3401;SDS011;1714;49.756;8.610;2022-08-25T22:15:09;6.80;;;4.10;;
3401;SDS011;1714;49.756;8.610;2022-08-25T22:25:12;5.85;;;4.38;;
3401;SDS011;1714;49.756;8.610;2022-08-25T22:35:15;5.72;;;4.45;;
3401;SDS011;1714;49.756;8.610;2022-08-25T22:45:17;7.68;;;5.10;;
3401;SDS011;1714;49.756;8.610;2022-08-25T22:55:21;6.40;;;4.28;;
3401;SDS011;1714;49.756;8.610;2022-08-25T23:05:25;4.78;;;4.10;;
3401;SDS011;1714;49.756;8.610;2022-08-25T23:15:28;6.28;;;4.63;;
3401;SDS011;1714;49.756;8.610;2022-08-25T23:25:31;7.75;;;5.10;;
3401;SDS011;1714;49.756;8.610;2022-08-25T23:35:33;7.05;;;5.15;;
3401;SDS011;1714;49.756;8.610;2022-08-25T23:45:36;8.18;;;4.78;;
3401;SDS011;1714;49.756;8.610;2022-08-25T23:55:39;7.05;;;5.18;;
